Time;durP1;ratioP1;P1;durP2;ratioP2;P2;SDS_P1;SDS_P2;PMS_P1;PMS_P2;Temp;Humidity;BMP_temperature;BMP_pressure;BME280_temperature;BME280_humidity;BME280_pressure;Samples;Min_cycle;Max_cycle;Signal;HPM_P1;HPM_P2
2022/01/09 00:02:13;;;;;;;50.75;33.25;;;21.30;85.10;;;;;;1911606;73;21142;-81
2022/01/09 00:04:43;;;;;;;60.65;37.13;;;21.30;84.90;;;;;;1919442;74;21230;-81
2022/01/09 00:07:14;;;;;;;77.45;54.10;;;21.30;84.70;;;;;;1895736;74;21642;-82
2022/01/09 00:09:45;;;;;;;50.95;33.73;;;21.40;84.30;;;;;;1905632;73;21070;-82
2022/01/09 00:12:16;;;;;;;55.80;35.70;;;21.50;84.00;;;;;;1932893;73;21220;-82
2022/01/09 00:14:46;;;;;;;56.58;37.80;;;21.50;84.20;;;;;;1862431;75;21192;-81
2022/01/09 00:17:17;;;;;;;55.28;39.42;;;21.50;84.20;;;;;;1874126;74;21673;-82
2022/01/09 00:19:48;;;;;;;58.80;40.12;;;21.60;83.10;;;;;;1883199;74;21160;-81
2022/01/09 00:22:29;;;;;;;53.13;34.88;;;21.70;82.50;;;;;;1875506;74;21588;-81
2022/01/09 00:24:51;;;;;;;47.38;34.27;;;21.70;81.90;;;;;;1914355;72;21158;-81
2022/01/09 00:27:22;;;;;;;47.73;33.83;;;21.80;81.20;;;;;;1910685;73;21194;-81
2022/01/09 00:29:53;;;;;;;52.65;36.58;;;21.90;81.00;;;;;;1925445;73;21556;-81
2022/01/09 00:32:24;;;;;;;52.83;33.98;;;22.00;80.80;;;;;;1887168;74;21198;-81
2022/01/09 00:34:55;;;;;;;56.73;38.38;;;22.10;80.60;;;;;;1874949;74;21170;-81
2022/01/09 00:37:26;;;;;;;52.48;35.58;;;22.20;80.30;;;;;;1868633;75;21757;-82
2022/01/09 00:39:58;;;;;;;52.58;33.92;;;22.20;79.50;;;;;;1905659;73;21125;-81
2022/01/09 00:42:29;;;;;;;48.48;32.90;;;22.30;80.50;;;;;;1912342;73;21144;-81
2022/01/09 00:45:00;;;;;;;47.78;33.13;;;22.30;79.70;;;;;;1883891;74;21773;-82
2022/01/09 00:47:30;;;;;;;49.75;33.30;;;22.40;79.80;;;;;;1901648;74;21683;-82
2022/01/09 00:50:01;;;;;;;48.45;34.88;;;22.40;79.90;;;;;;1925815;73;21168;-82
2022/01/09 00:52:32;;;;;;;53.10;34.95;;;22.40;79.60;;;;;;1945058;73;21136;-82
2022/01/09 00:55:05;;;;;;;48.08;34.58;;;22.50;80.10;;;;;;1933727;73;21596;-82
2022/01/09 00:57:36;;;;;;;52.80;36.85;;;22.50;80.10;;;;;;1897572;73;21179;-82
2022/01/09 01:00:08;;;;;;;56.70;35.15;;;22.50;80.10;;;;;;1924595;73;21175;-81
2022/01/09 01:02:40;;;;;;;52.75;34.67;;;22.60;80.00;;;;;;1926649;74;21171;-81
2022/01/09 01:05:11;;;;;;;50.63;34.50;;;22.60;80.00;;;;;;1922882;74;21685;-82
2022/01/09 01:07:42;;;;;;;46.65;33.98;;;22.60;80.00;;;;;;1906394;73;21142;-82
2022/01/09 01:10:14;;;;;;;47.93;32.60;;;22.70;79.90;;;;;;1923280;72;21162;-82
2022/01/09 01:12:45;;;;;;;44.23;31.37;;;22.70;79.80;;;;;;1911980;73;21175;-82
2022/01/09 01:15:16;;;;;;;45.50;30.80;;;22.70;79.90;;;;;;1903803;73;21083;-82
2022/01/09 01:17:46;;;;;;;49.53;32.00;;;22.70;79.70;;;;;;1905248;72;21129;-82
2022/01/09 01:20:21;;;;;;;43.17;29.95;;;22.70;80.20;;;;;;1915848;72;21191;-82
2022/01/09 01:22:52;;;;;;;42.48;30.20;;;22.80;80.20;;;;;;1899929;74;21205;-82
2022/01/09 01:25:23;;;;;;;42.70;30.17;;;22.90;79.60;;;;;;1907566;73;21123;-82
2022/01/09 01:27:54;;;;;;;44.20;29.75;;;22.90;79.70;;;;;;1914848;72;21181;-82
2022/01/09 01:30:25;;;;;;;38.70;27.40;;;22.90;79.00;;;;;;1903016;72;21628;-82
2022/01/09 01:32:55;;;;;;;39.78;26.20;;;23.00;78.60;;;;;;1918374;73;21142;-82
2022/01/09 01:35:26;;;;;;;34.35;24.77;;;23.00;79.30;;;;;;1882581;74;21123;-82
2022/01/09 01:37:57;;;;;;;37.10;25.17;;;23.00;79.00;;;;;;1903958;73;21133;-82
2022/01/09 01:40:28;;;;;;;34.30;24.80;;;23.10;78.50;;;;;;1874477;73;21115;-82
2022/01/09 01:42:59;;;;;;;37.23;23.57;;;23.10;78.60;;;;;;1906071;73;21224;-82
2022/01/09 01:45:30;;;;;;;30.12;20.45;;;23.20;78.50;;;;;;1908542;73;21208;-82
2022/01/09 01:48:06;;;;;;;29.95;19.10;;;23.30;78.80;;;;;;1904294;74;21956;-82
2022/01/09 01:50:37;;;;;;;26.48;19.25;;;23.40;79.30;;;;;;1871846;74;21283;-82
2022/01/09 01:53:11;;;;;;;31.40;20.52;;;23.40;79.00;;;;;;1917342;73;21194;-83
2022/01/09 01:55:41;;;;;;;28.42;18.02;;;23.50;79.50;;;;;;1866548;74;21185;-82
2022/01/09 01:58:13;;;;;;;27.50;16.52;;;23.50;79.40;;;;;;1873756;74;21233;-82
2022/01/09 02:00:44;;;;;;;23.65;16.82;;;23.50;78.60;;;;;;1878000;74;21229;-82
2022/01/09 02:03:15;;;;;;;26.55;16.60;;;23.60;79.70;;;;;;1922778;73;21672;-82
2022/01/09 02:05:47;;;;;;;24.87;16.42;;;23.60;79.00;;;;;;1921473;72;21567;-82
2022/01/09 02:08:18;;;;;;;25.52;16.90;;;23.70;78.80;;;;;;1916412;73;21654;-82
2022/01/09 02:10:48;;;;;;;22.48;14.75;;;23.70;79.00;;;;;;1921680;73;21138;-82
2022/01/09 02:13:20;;;;;;;22.82;15.38;;;23.70;78.00;;;;;;1914602;74;21524;-82
2022/01/09 02:15:56;;;;;;;26.50;16.02;;;23.80;78.30;;;;;;1899198;73;21163;-82
2022/01/09 02:18:23;;;;;;;29.70;17.85;;;23.90;78.50;;;;;;1870431;75;21127;-82
2022/01/09 02:20:54;;;;;;;24.32;14.80;;;23.90;79.00;;;;;;1905534;73;21245;-81
2022/01/09 02:23:26;;;;;;;25.30;14.65;;;23.90;79.20;;;;;;1914938;73;21714;-81
2022/01/09 02:25:56;;;;;;;18.70;13.22;;;24.00;78.90;;;;;;1917131;73;21176;-82
2022/01/09 02:28:29;;;;;;;17.37;11.33;;;24.00;78.30;;;;;;1910608;73;21543;-82
2022/01/09 02:30:59;;;;;;;19.70;11.25;;;24.00;77.80;;;;;;1878738;74;21220;-83
2022/01/09 02:33:30;;;;;;;16.77;10.48;;;24.10;77.60;;;;;;1901017;73;21162;-80
2022/01/09 02:36:01;;;;;;;15.55;10.15;;;24.10;77.70;;;;;;1905045;73;21241;-82
2022/01/09 02:38:32;;;;;;;16.50;10.78;;;24.20;77.60;;;;;;1910513;73;21839;-82
2022/01/09 02:41:03;;;;;;;17.40;10.35;;;24.20;77.00;;;;;;1909555;73;21221;-82
2022/01/09 02:43:33;;;;;;;15.70;10.60;;;24.30;77.20;;;;;;1921452;73;21664;-82
2022/01/09 02:46:30;;;;;;;15.72;10.95;;;24.40;77.10;;;;;;1911571;73;21135;-80
2022/01/09 02:48:39;;;;;;;14.60;9.80;;;24.40;76.70;;;;;;1907716;73;21147;-83
2022/01/09 02:51:17;;;;;;;12.85;9.65;;;24.50;76.70;;;;;;1919645;72;21169;-82
2022/01/09 02:53:44;;;;;;;14.58;11.10;;;24.50;76.30;;;;;;1905826;74;21732;-83
2022/01/09 02:56:14;;;;;;;17.45;9.95;;;24.60;76.50;;;;;;1883899;74;21331;-82
2022/01/09 02:58:45;;;;;;;12.82;9.98;;;24.60;76.40;;;;;;1882730;74;21135;-82
2022/01/09 03:01:15;;;;;;;16.12;11.05;;;24.60;75.90;;;;;;1913252;73;21176;-82
2022/01/09 03:03:46;;;;;;;13.03;10.20;;;24.70;76.20;;;;;;1902030;73;21161;-81
2022/01/09 03:06:17;;;;;;;17.62;10.95;;;24.70;76.20;;;;;;1903862;73;21142;-83
2022/01/09 03:08:48;;;;;;;14.83;10.23;;;24.70;76.00;;;;;;1914781;73;21540;-81
2022/01/09 03:11:19;;;;;;;14.98;10.90;;;24.80;75.80;;;;;;1908419;73;21262;-83
2022/01/09 03:13:49;;;;;;;18.65;11.85;;;24.80;75.80;;;;;;1867667;75;21131;-81
2022/01/09 03:16:20;;;;;;;16.55;11.43;;;24.80;75.80;;;;;;1907848;73;21142;-81
2022/01/09 03:18:51;;;;;;;16.65;10.68;;;24.90;75.50;;;;;;1909799;72;21809;-81
2022/01/09 03:21:22;;;;;;;15.93;10.93;;;25.00;75.30;;;;;;1870674;74;21174;-80
2022/01/09 03:23:53;;;;;;;14.07;10.48;;;25.00;74.80;;;;;;1899018;73;21167;-81
2022/01/09 03:26:23;;;;;;;16.82;10.35;;;25.10;74.70;;;;;;1903279;73;21083;-81
2022/01/09 03:28:54;;;;;;;15.72;11.40;;;25.20;74.40;;;;;;1904684;73;21095;-81
2022/01/09 03:31:25;;;;;;;15.98;10.38;;;25.30;74.30;;;;;;1924226;72;21110;-82
2022/01/09 03:33:57;;;;;;;14.95;10.48;;;25.40;74.10;;;;;;1869067;74;21186;-81
2022/01/09 03:36:28;;;;;;;16.32;10.50;;;25.50;73.50;;;;;;1900395;74;22269;-82
2022/01/09 03:38:58;;;;;;;18.25;11.25;;;25.50;73.30;;;;;;1925189;72;21182;-83
2022/01/09 03:41:29;;;;;;;15.63;11.50;;;25.60;73.20;;;;;;1886480;73;21114;-82
2022/01/09 03:44:00;;;;;;;19.30;11.35;;;25.70;73.00;;;;;;1867791;74;21132;-82
2022/01/09 03:46:30;;;;;;;17.27;11.88;;;25.70;72.60;;;;;;1917062;73;21166;-82
2022/01/09 03:49:01;;;;;;;16.00;10.82;;;25.90;72.40;;;;;;1875784;74;21227;-81
2022/01/09 03:51:36;;;;;;;15.85;10.85;;;25.90;72.00;;;;;;1929156;73;21148;-82
2022/01/09 03:54:06;;;;;;;16.23;11.28;;;26.10;71.60;;;;;;1890067;74;21642;-82
2022/01/09 03:56:37;;;;;;;14.43;10.38;;;26.20;70.80;;;;;;1922801;73;21085;-82
2022/01/09 03:59:07;;;;;;;16.52;10.40;;;26.30;70.90;;;;;;1915748;73;21783;-82
2022/01/09 04:01:38;;;;;;;15.72;10.50;;;26.40;70.40;;;;;;1914666;73;21107;-82
2022/01/09 04:04:09;;;;;;;17.45;10.48;;;26.50;69.70;;;;;;1901350;73;21600;-82
2022/01/09 04:06:45;;;;;;;13.85;10.00;;;26.60;69.60;;;;;;1884666;74;21113;-83
2022/01/09 04:09:19;;;;;;;16.73;10.63;;;26.70;69.80;;;;;;1889420;73;21574;-82
2022/01/09 04:11:46;;;;;;;15.68;9.70;;;26.80;70.00;;;;;;1910019;73;21161;-83
2022/01/09 04:14:17;;;;;;;17.10;10.48;;;26.80;68.80;;;;;;1908293;73;21123;-83
2022/01/09 04:16:47;;;;;;;16.70;10.60;;;26.90;68.40;;;;;;1885702;74;21158;-82
2022/01/09 04:19:18;;;;;;;14.07;9.88;;;27.00;68.20;;;;;;1911489;73;21154;-81
2022/01/09 04:21:49;;;;;;;14.07;9.28;;;27.10;67.80;;;;;;1906759;73;21094;-83
2022/01/09 04:24:20;;;;;;;14.38;9.80;;;27.20;67.10;;;;;;1915563;73;21149;-82
2022/01/09 04:26:55;;;;;;;14.90;9.88;;;27.40;67.00;;;;;;1921857;73;21212;-82
2022/01/09 04:29:34;;;;;;;14.13;9.98;;;27.50;66.10;;;;;;1883922;74;21218;-85
2022/01/09 04:32:13;;;;;;;10.45;7.92;;;27.60;65.70;;;;;;1878222;74;21248;-84
2022/01/09 04:34:47;;;;;;;16.85;9.10;;;27.60;65.20;;;;;;1863759;74;21151;-83
2022/01/09 04:37:21;;;;;;;13.32;8.95;;;27.70;64.20;;;;;;1910958;73;21059;-83
2022/01/09 04:39:53;;;;;;;17.25;9.05;;;27.80;64.40;;;;;;1875521;74;21164;-82
2022/01/09 04:42:31;;;;;;;14.65;8.63;;;27.90;64.50;;;;;;1870478;74;21167;-81
2022/01/09 04:44:57;;;;;;;13.25;8.00;;;27.90;63.50;;;;;;1892790;73;21204;-82
2022/01/09 04:47:28;;;;;;;12.75;7.90;;;28.00;63.40;;;;;;1883956;73;21182;-82
2022/01/09 04:49:59;;;;;;;12.60;7.85;;;28.10;61.50;;;;;;1866323;74;21648;-82
2022/01/09 04:52:34;;;;;;;11.55;7.30;;;28.30;62.10;;;;;;1874966;74;21700;-81
2022/01/09 04:55:06;;;;;;;10.98;7.30;;;28.40;61.80;;;;;;1878394;74;21136;-84
2022/01/09 04:57:37;;;;;;;13.18;8.05;;;28.50;61.50;;;;;;1901417;72;21912;-82
2022/01/09 05:00:08;;;;;;;11.25;7.37;;;28.60;61.70;;;;;;1880555;74;21225;-81
2022/01/09 05:02:39;;;;;;;16.27;7.92;;;28.80;60.80;;;;;;1920072;73;21160;-81
2022/01/09 05:05:11;;;;;;;11.55;7.53;;;28.90;60.50;;;;;;1891680;73;21253;-83
2022/01/09 05:07:42;;;;;;;11.43;8.40;;;28.90;59.10;;;;;;1883740;74;21646;-83
2022/01/09 05:10:14;;;;;;;11.75;8.73;;;29.00;59.50;;;;;;1912007;73;21161;-84
2022/01/09 05:12:45;;;;;;;16.00;9.58;;;29.00;59.90;;;;;;1918410;73;21210;-82
2022/01/09 05:15:18;;;;;;;19.60;9.85;;;29.00;59.60;;;;;;1912419;74;22366;-82
2022/01/09 05:17:50;;;;;;;13.32;8.58;;;29.10;58.90;;;;;;1914951;73;21636;-83
2022/01/09 05:20:20;;;;;;;15.32;9.40;;;29.10;58.10;;;;;;1912692;74;21155;-83
2022/01/09 05:22:51;;;;;;;14.70;9.05;;;29.10;58.10;;;;;;1912089;74;21718;-82
2022/01/09 05:25:22;;;;;;;12.37;9.03;;;29.20;58.50;;;;;;1898334;74;21169;-83
2022/01/09 05:27:53;;;;;;;13.38;8.80;;;29.30;58.60;;;;;;1898469;74;21147;-82
2022/01/09 05:30:23;;;;;;;17.35;9.48;;;29.40;57.40;;;;;;1919050;73;21726;-82
2022/01/09 05:32:55;;;;;;;15.43;9.70;;;29.40;57.80;;;;;;1901656;73;21804;-82
2022/01/09 05:35:26;;;;;;;16.60;10.98;;;29.50;58.00;;;;;;1901974;73;21213;-82
2022/01/09 05:37:57;;;;;;;13.88;10.75;;;29.50;57.70;;;;;;1871609;74;21248;-83
2022/01/09 05:40:27;;;;;;;17.10;11.88;;;29.60;58.20;;;;;;1922495;73;21195;-83
2022/01/09 05:42:58;;;;;;;18.37;12.00;;;29.70;57.70;;;;;;1921560;73;21194;-83
2022/01/09 05:45:29;;;;;;;13.45;10.38;;;29.80;58.10;;;;;;1903409;74;21257;-83
2022/01/09 05:48:01;;;;;;;15.53;10.75;;;29.80;58.50;;;;;;1904622;73;21227;-82
2022/01/09 05:50:32;;;;;;;16.25;10.88;;;29.90;57.50;;;;;;1909207;73;21583;-82
2022/01/09 05:53:03;;;;;;;15.68;11.00;;;29.90;57.10;;;;;;1896446;73;21187;-84
2022/01/09 05:55:33;;;;;;;18.37;11.70;;;30.00;57.90;;;;;;1907924;73;21159;-84
2022/01/09 05:58:04;;;;;;;14.80;11.25;;;30.00;57.50;;;;;;1900626;73;21167;-82
2022/01/09 06:00:35;;;;;;;19.07;11.20;;;30.10;56.90;;;;;;1884356;74;21164;-82
2022/01/09 06:03:06;;;;;;;15.10;10.23;;;30.10;57.40;;;;;;1908055;73;21399;-82
2022/01/09 06:05:37;;;;;;;18.65;11.63;;;30.20;57.00;;;;;;1908628;73;21239;-82
2022/01/09 06:08:08;;;;;;;16.70;11.12;;;30.20;56.10;;;;;;1890219;74;21143;-82
2022/01/09 06:10:42;;;;;;;13.50;10.08;;;30.10;56.60;;;;;;1879900;74;21172;-93
2022/01/09 06:13:14;;;;;;;14.07;9.50;;;30.20;56.20;;;;;;1915265;72;21128;-83
2022/01/09 06:15:44;;;;;;;12.63;9.73;;;30.20;56.40;;;;;;1884144;74;21154;-83
2022/01/09 06:18:16;;;;;;;16.15;9.40;;;30.20;56.20;;;;;;1881951;74;21180;-84
2022/01/09 06:20:48;;;;;;;15.58;10.68;;;30.20;55.60;;;;;;1874179;74;21144;-83
2022/01/09 06:23:20;;;;;;;14.65;10.55;;;30.20;55.10;;;;;;1890350;74;21100;-82
2022/01/09 06:25:52;;;;;;;17.57;10.53;;;30.20;55.10;;;;;;1889635;74;21182;-83
2022/01/09 06:28:23;;;;;;;14.53;10.00;;;30.30;55.10;;;;;;1902390;73;21977;-83
2022/01/09 06:30:54;;;;;;;14.68;9.68;;;30.40;55.20;;;;;;1894250;74;21101;-82
2022/01/09 06:33:25;;;;;;;12.20;10.18;;;30.40;55.10;;;;;;1893651;74;21239;-81
2022/01/09 06:35:55;;;;;;;16.37;10.30;;;30.40;55.50;;;;;;1881201;74;21058;-83
2022/01/09 06:38:26;;;;;;;18.77;10.00;;;30.50;54.90;;;;;;1907964;73;21229;-81
2022/01/09 06:40:58;;;;;;;15.15;10.38;;;30.50;55.10;;;;;;1865162;74;21184;-80
2022/01/09 06:43:28;;;;;;;19.75;10.38;;;30.50;55.00;;;;;;1898379;73;21162;-81
2022/01/09 06:45:59;;;;;;;12.30;9.33;;;30.60;54.90;;;;;;1877981;74;21265;-81
2022/01/09 06:48:30;;;;;;;14.30;10.13;;;30.60;53.90;;;;;;1902501;73;21249;-81
2022/01/09 06:51:00;;;;;;;15.20;9.50;;;30.60;54.30;;;;;;1905685;73;21261;-81
2022/01/09 06:53:31;;;;;;;14.47;9.90;;;30.60;53.20;;;;;;1917596;73;21148;-80
2022/01/09 06:56:02;;;;;;;11.90;9.45;;;30.70;54.60;;;;;;1898118;73;21194;-81
2022/01/09 06:58:32;;;;;;;12.88;8.90;;;30.80;54.30;;;;;;1884577;74;21246;-81
2022/01/09 07:01:04;;;;;;;13.90;10.13;;;30.80;54.20;;;;;;1892812;73;21738;-81
2022/01/09 07:03:35;;;;;;;15.88;10.20;;;30.80;54.00;;;;;;1923024;73;21146;-81
2022/01/09 07:06:06;;;;;;;13.60;9.53;;;30.80;53.40;;;;;;1888793;72;21638;-81
2022/01/09 07:08:37;;;;;;;13.90;9.03;;;30.80;53.20;;;;;;1892156;74;21597;-81
2022/01/09 07:11:08;;;;;;;13.70;9.48;;;30.70;54.10;;;;;;1913442;74;21189;-82
2022/01/09 07:13:38;;;;;;;13.45;8.73;;;30.70;53.60;;;;;;1844960;75;21203;-82
2022/01/09 07:16:09;;;;;;;18.15;9.70;;;30.80;53.70;;;;;;1873343;74;21166;-84
2022/01/09 07:18:40;;;;;;;14.87;9.45;;;30.80;53.50;;;;;;1903259;73;21082;-84
2022/01/09 07:21:11;;;;;;;14.87;8.88;;;30.90;53.00;;;;;;1900501;73;21145;-83
2022/01/09 07:23:41;;;;;;;13.20;9.43;;;30.90;52.50;;;;;;1898656;74;21207;-83
2022/01/09 07:26:12;;;;;;;13.00;9.10;;;31.00;52.90;;;;;;1887576;75;21306;-82
2022/01/09 07:28:42;;;;;;;14.68;9.25;;;31.00;52.70;;;;;;1877136;75;21126;-83
2022/01/09 07:31:13;;;;;;;15.00;8.88;;;30.90;53.20;;;;;;1920176;73;21881;-84
2022/01/09 07:33:44;;;;;;;11.48;8.93;;;30.90;52.30;;;;;;1916074;73;21702;-81
2022/01/09 07:36:17;;;;;;;10.60;9.13;;;30.90;52.00;;;;;;1893274;74;21225;-82
2022/01/09 07:38:47;;;;;;;13.10;8.93;;;30.90;52.70;;;;;;1912011;73;21236;-83
2022/01/09 07:41:18;;;;;;;15.05;8.83;;;30.80;52.80;;;;;;1872607;75;21843;-83
2022/01/09 07:43:49;;;;;;;15.00;8.98;;;30.80;53.20;;;;;;1888056;73;21783;-83
2022/01/09 07:46:20;;;;;;;15.35;9.20;;;30.80;53.00;;;;;;1912623;73;21128;-83
2022/01/09 07:48:50;;;;;;;15.45;9.28;;;30.80;52.20;;;;;;1899246;73;21726;-85
2022/01/09 07:51:21;;;;;;;15.53;9.45;;;30.80;52.90;;;;;;1888370;74;21602;-84
2022/01/09 07:53:53;;;;;;;13.30;8.13;;;30.80;52.40;;;;;;1894591;73;21139;-84
2022/01/09 07:56:24;;;;;;;12.82;9.25;;;30.80;52.90;;;;;;1903191;73;21238;-83
2022/01/09 07:58:55;;;;;;;15.03;10.48;;;30.70;51.90;;;;;;1927030;73;21168;-84
2022/01/09 08:01:26;;;;;;;14.30;8.78;;;30.60;51.70;;;;;;1905869;73;21189;-84
2022/01/09 08:03:56;;;;;;;14.10;9.70;;;30.50;51.60;;;;;;1896697;73;21144;-84
2022/01/09 08:06:28;;;;;;;14.75;10.13;;;30.40;52.40;;;;;;1897606;73;21211;-84
2022/01/09 08:08:58;;;;;;;14.75;9.95;;;30.50;52.70;;;;;;1903722;73;21067;-83
2022/01/09 08:11:29;;;;;;;15.20;8.55;;;30.50;53.40;;;;;;1885833;74;21135;-84
2022/01/09 08:14:00;;;;;;;13.93;9.70;;;30.50;53.40;;;;;;1907632;74;21084;-84
2022/01/09 08:16:30;;;;;;;11.63;8.40;;;30.60;53.10;;;;;;1892003;74;21725;-84
2022/01/09 08:19:01;;;;;;;16.32;9.18;;;30.60;52.90;;;;;;1882321;74;21131;-83
2022/01/09 08:21:32;;;;;;;12.88;8.75;;;30.50;53.20;;;;;;1865689;74;21611;-83
2022/01/09 08:24:03;;;;;;;13.45;9.00;;;30.50;53.00;;;;;;1885272;74;21117;-85
2022/01/09 08:26:34;;;;;;;10.72;8.18;;;30.50;52.50;;;;;;1899763;74;21205;-85
2022/01/09 08:29:04;;;;;;;11.40;9.23;;;30.50;52.60;;;;;;1905387;74;21199;-83
2022/01/09 08:31:35;;;;;;;10.38;8.58;;;30.40;52.70;;;;;;1902095;74;21145;-85
2022/01/09 08:34:06;;;;;;;13.10;8.50;;;30.40;52.90;;;;;;1896304;73;21978;-86
2022/01/09 08:36:38;;;;;;;12.23;8.95;;;30.40;53.10;;;;;;1899097;74;21107;-83
2022/01/09 08:39:10;;;;;;;9.78;8.60;;;30.40;52.90;;;;;;1894520;74;21173;-85
2022/01/09 08:41:42;;;;;;;12.20;8.33;;;30.40;53.30;;;;;;1900239;73;21149;-82
2022/01/09 08:44:12;;;;;;;13.60;9.38;;;30.40;52.40;;;;;;1897961;73;21213;-85
2022/01/09 08:46:43;;;;;;;14.78;10.23;;;30.30;51.80;;;;;;1915389;73;21157;-84
2022/01/09 08:49:15;;;;;;;10.80;8.40;;;30.30;52.00;;;;;;1931255;73;21594;-84
2022/01/09 08:51:46;;;;;;;12.13;8.58;;;30.30;52.10;;;;;;1923981;73;21633;-84
2022/01/09 08:54:17;;;;;;;14.10;8.63;;;30.30;52.40;;;;;;1917223;73;21186;-83
2022/01/09 08:56:48;;;;;;;12.85;9.43;;;30.30;52.00;;;;;;1907027;74;21099;-84
2022/01/09 08:59:19;;;;;;;10.75;8.10;;;30.20;52.30;;;;;;1906969;74;21170;-85
2022/01/09 09:01:50;;;;;;;13.53;9.63;;;30.20;52.50;;;;;;1911647;73;21159;-84
2022/01/09 09:04:21;;;;;;;12.95;9.43;;;30.20;52.30;;;;;;1910593;73;21663;-83
2022/01/09 09:06:52;;;;;;;13.68;10.03;;;30.20;52.40;;;;;;1909691;73;21067;-84
2022/01/09 09:09:22;;;;;;;12.05;8.78;;;30.20;52.70;;;;;;1899958;73;21625;-83
2022/01/09 09:11:53;;;;;;;14.63;11.40;;;30.20;52.50;;;;;;1898718;74;21230;-83
2022/01/09 09:14:24;;;;;;;14.33;9.35;;;30.10;52.40;;;;;;1901199;73;21131;-82
2022/01/09 09:16:55;;;;;;;12.43;9.48;;;30.10;52.40;;;;;;1882824;74;21147;-83
2022/01/09 09:19:26;;;;;;;13.40;8.85;;;30.10;53.30;;;;;;1904477;73;21104;-83
2022/01/09 09:21:57;;;;;;;12.20;8.80;;;30.10;53.10;;;;;;1919180;73;21234;-83
2022/01/09 09:24:28;;;;;;;10.25;8.53;;;30.10;53.50;;;;;;1946620;73;21689;-84
2022/01/09 09:26:59;;;;;;;12.93;8.45;;;30.10;52.80;;;;;;1916109;73;21158;-84
2022/01/09 09:29:30;;;;;;;12.73;7.97;;;30.00;52.90;;;;;;1902188;74;21154;-84
2022/01/09 09:32:01;;;;;;;14.03;8.63;;;30.10;52.30;;;;;;1916166;74;21631;-84
2022/01/09 09:34:32;;;;;;;12.13;8.65;;;30.10;52.00;;;;;;1904959;74;21210;-84
2022/01/09 09:37:03;;;;;;;11.68;8.30;;;30.10;52.40;;;;;;1930260;73;21189;-84
2022/01/09 09:39:35;;;;;;;15.60;11.97;;;30.10;52.50;;;;;;1898903;74;21191;-83
2022/01/09 09:42:06;;;;;;;12.15;8.90;;;30.10;52.60;;;;;;1918526;73;21142;-84
2022/01/09 09:44:37;;;;;;;21.77;9.23;;;30.10;52.60;;;;;;1911826;74;21224;-83
2022/01/09 09:47:10;;;;;;;15.48;9.13;;;30.00;53.50;;;;;;1918738;73;21208;-84
2022/01/09 09:49:41;;;;;;;13.98;9.20;;;29.90;52.40;;;;;;1909397;74;21136;-82
2022/01/09 09:52:15;;;;;;;13.50;9.45;;;29.90;52.40;;;;;;1912449;73;21619;-82
2022/01/09 09:54:44;;;;;;;14.75;9.38;;;29.90;52.60;;;;;;1872616;74;21703;-83
2022/01/09 09:57:16;;;;;;;12.45;9.33;;;29.80;52.40;;;;;;1923566;74;21339;-84
2022/01/09 09:59:47;;;;;;;21.00;11.75;;;29.80;52.60;;;;;;1923515;73;21224;-83
2022/01/09 10:02:19;;;;;;;27.17;11.25;;;29.70;52.80;;;;;;1929678;73;21667;-83
2022/01/09 10:04:52;;;;;;;15.15;9.95;;;29.70;53.00;;;;;;1923694;73;21714;-83
2022/01/09 10:07:23;;;;;;;12.70;8.60;;;29.60;53.30;;;;;;1921548;74;21604;-85
2022/01/09 10:09:56;;;;;;;11.22;8.30;;;29.60;53.10;;;;;;1889453;73;21245;-84
2022/01/09 10:12:30;;;;;;;13.48;8.25;;;29.50;53.10;;;;;;1916215;73;21196;-84
2022/01/09 10:15:02;;;;;;;17.30;10.55;;;29.50;53.10;;;;;;1906388;73;21074;-85
2022/01/09 10:17:34;;;;;;;14.85;9.13;;;29.50;53.50;;;;;;1907666;74;21605;-85
2022/01/09 10:20:07;;;;;;;14.80;9.70;;;29.40;53.40;;;;;;1885230;74;21108;-84
2022/01/09 10:22:40;;;;;;;12.25;8.48;;;29.40;53.50;;;;;;1906669;73;21146;-84
2022/01/09 10:25:13;;;;;;;12.18;8.40;;;29.30;53.50;;;;;;1909919;73;21197;-83
2022/01/09 10:27:45;;;;;;;13.90;9.88;;;29.30;53.50;;;;;;1896381;72;21106;-83
2022/01/09 10:30:17;;;;;;;16.20;9.93;;;29.30;53.70;;;;;;1903961;73;21176;-85
2022/01/09 10:32:48;;;;;;;18.65;12.65;;;29.20;53.80;;;;;;1907687;73;21222;-83
2022/01/09 10:35:20;;;;;;;17.70;11.33;;;29.20;54.10;;;;;;1909471;73;21169;-84
2022/01/09 10:37:53;;;;;;;13.55;9.60;;;29.20;53.90;;;;;;1922531;73;21080;-84
2022/01/09 10:40:29;;;;;;;15.85;9.53;;;29.20;53.40;;;;;;1901114;72;21534;-83
2022/01/09 10:43:00;;;;;;;14.80;10.18;;;29.20;53.30;;;;;;1913978;72;21150;-83
2022/01/09 10:45:31;;;;;;;15.63;9.65;;;29.20;53.60;;;;;;1899690;72;21197;-83
2022/01/09 10:48:05;;;;;;;15.28;10.28;;;29.20;52.60;;;;;;1919221;72;21666;-83
2022/01/09 10:50:40;;;;;;;18.65;10.50;;;29.20;53.00;;;;;;1899451;73;21241;-84
2022/01/09 10:53:14;;;;;;;16.30;9.85;;;29.20;52.90;;;;;;1901372;73;21620;-84
2022/01/09 10:55:47;;;;;;;32.55;11.30;;;29.10;53.30;;;;;;1874739;73;21101;-84
2022/01/09 10:58:20;;;;;;;16.50;10.05;;;29.10;53.40;;;;;;1905166;74;21675;-85
2022/01/09 11:00:53;;;;;;;20.88;11.40;;;29.00;53.60;;;;;;1875108;74;21115;-84
2022/01/09 11:03:33;;;;;;;20.72;13.50;;;29.00;54.10;;;;;;1894999;73;21123;-82
2022/01/09 11:06:04;;;;;;;18.12;12.03;;;28.90;54.40;;;;;;1890903;73;21171;-83
2022/01/09 11:08:37;;;;;;;16.95;12.07;;;28.90;55.00;;;;;;1887567;74;21131;-84
2022/01/09 11:11:16;;;;;;;22.70;12.47;;;28.80;55.20;;;;;;1906947;73;21236;-83
2022/01/09 11:13:44;;;;;;;20.57;11.97;;;28.70;55.40;;;;;;1924023;73;21148;-82
2022/01/09 11:18:49;;;;;;;29.92;13.32;;;28.60;56.00;;;;;;1909380;74;21636;-82
2022/01/09 11:21:20;;;;;;;23.87;13.55;;;28.50;56.20;;;;;;1911440;73;21252;-81
2022/01/09 11:23:53;;;;;;;22.35;13.75;;;28.40;56.60;;;;;;1922184;73;21418;-82
2022/01/09 11:26:26;;;;;;;23.57;14.58;;;28.30;56.60;;;;;;1935636;73;21187;-82
2022/01/09 11:28:57;;;;;;;28.42;15.08;;;28.30;56.80;;;;;;1869518;74;21057;-82
2022/01/09 11:31:30;;;;;;;26.30;14.80;;;28.30;56.90;;;;;;1908191;73;21207;-82
2022/01/09 11:34:09;;;;;;;27.67;14.93;;;28.20;57.10;;;;;;1909954;73;21163;-82
2022/01/09 11:36:38;;;;;;;24.77;14.68;;;28.20;57.20;;;;;;1889362;73;21145;-82
2022/01/09 11:39:12;;;;;;;24.70;14.98;;;28.10;57.30;;;;;;1873302;74;21166;-82
2022/01/09 11:41:45;;;;;;;26.70;15.30;;;28.10;57.50;;;;;;1902970;73;21213;-81
2022/01/09 11:44:23;;;;;;;30.32;15.83;;;28.00;57.90;;;;;;1903348;73;21173;-82
2022/01/09 11:46:57;;;;;;;29.07;15.35;;;28.00;57.90;;;;;;1916019;73;21181;-83
2022/01/09 11:49:31;;;;;;;30.85;15.88;;;28.00;58.10;;;;;;1892205;73;21155;-82
2022/01/09 11:52:02;;;;;;;24.85;14.95;;;28.00;58.30;;;;;;1884392;74;21221;-83
2022/01/09 11:54:35;;;;;;;20.52;14.68;;;27.90;58.60;;;;;;1887454;74;21167;-83
2022/01/09 11:57:08;;;;;;;21.23;14.07;;;27.90;58.60;;;;;;1911636;74;21167;-81
2022/01/09 11:59:45;;;;;;;25.20;15.55;;;27.80;58.70;;;;;;1893288;74;21165;-82
2022/01/09 12:02:18;;;;;;;26.35;14.63;;;27.80;58.90;;;;;;1917556;73;21081;-83
2022/01/09 12:04:51;;;;;;;21.52;14.10;;;27.80;59.10;;;;;;1887861;73;21293;-84
2022/01/09 12:07:27;;;;;;;25.88;14.20;;;27.70;59.10;;;;;;1876169;73;21147;-83
2022/01/09 12:09:57;;;;;;;23.83;13.80;;;27.70;59.30;;;;;;1904355;74;22261;-83
2022/01/09 12:12:31;;;;;;;26.87;15.08;;;27.70;59.00;;;;;;1894234;74;21771;-83
2022/01/09 12:15:04;;;;;;;29.48;15.43;;;27.70;59.30;;;;;;1868141;74;21159;-83
2022/01/09 12:17:41;;;;;;;22.02;15.40;;;27.70;59.30;;;;;;1889246;73;21658;-83
2022/01/09 12:20:13;;;;;;;30.37;15.55;;;27.60;59.40;;;;;;1903358;74;21063;-82
2022/01/09 12:23:00;;;;;;;36.80;16.17;;;27.60;59.60;;;;;;1890060;74;21222;-83
2022/01/09 12:25:22;;;;;;;31.87;15.85;;;27.60;59.70;;;;;;1937523;73;21702;-82
2022/01/09 12:27:58;;;;;;;28.20;15.25;;;27.60;59.80;;;;;;1917164;73;21132;-82
2022/01/09 12:30:33;;;;;;;26.27;15.03;;;27.60;59.70;;;;;;1865336;73;21226;-83
2022/01/09 12:33:06;;;;;;;25.50;14.90;;;27.60;59.80;;;;;;1905644;73;21135;-82
2022/01/09 12:35:39;;;;;;;23.10;15.65;;;27.50;59.70;;;;;;1896013;73;21213;-82
2022/01/09 12:38:12;;;;;;;22.52;15.50;;;27.50;59.80;;;;;;1904944;73;21073;-83
2022/01/09 12:40:45;;;;;;;18.37;14.50;;;27.50;60.00;;;;;;1897560;73;21597;-83
2022/01/09 12:43:17;;;;;;;25.10;15.25;;;27.50;60.10;;;;;;1896331;73;21159;-82
2022/01/09 12:45:48;;;;;;;25.45;15.23;;;27.40;60.20;;;;;;1881513;74;21122;-82
2022/01/09 12:48:21;;;;;;;21.42;14.43;;;27.40;60.40;;;;;;1892370;73;21187;-82
2022/01/09 12:50:51;;;;;;;25.15;16.37;;;27.40;60.30;;;;;;1898880;74;21206;-82
2022/01/09 12:53:26;;;;;;;25.60;15.70;;;27.40;60.50;;;;;;1895715;74;21087;-81
2022/01/09 12:55:59;;;;;;;25.90;16.77;;;27.40;60.60;;;;;;1867443;74;21131;-83